Time,TemperatureF,DewpointF,PressureIn,WindDirection,WindDirectionDegrees,WindSpeedMPH,WindSpeedGustMPH,Humidity,HourlyPrecipIn,Conditions,Clouds,dailyrainin,SoftwareType,DateUTC
2013-04-30 00:00:00,61.6,61.0,29.99,ESE,121,0.0,0.0,98,0.00,,,2.01,VWS V14.01,2013-04-30 04:00:00,
2013-04-30 00:01:00,61.6,61.0,29.99,ESE,121,0.0,0.0,98,0.00,,,2.01,VWS V14.01,2013-04-30 04:01:00,
2013-04-30 00:06:00,61.4,60.8,29.99,ESE,105,0.0,0.0,98,0.00,,,0.00,VWS V14.01,2013-04-30 04:06:00,
2013-04-30 00:11:00,61.3,60.7,29.99,ESE,105,0.0,0.0,98,0.00,,,0.00,VWS V14.01,2013-04-30 04:11:00,
2013-04-30 00:16:00,61.1,60.5,29.99,ESE,105,0.0,0.0,98,0.00,,,0.00,VWS V14.01,2013-04-30 04:16:00,
2013-04-30 00:21:00,60.9,60.3,29.99,ESE,105,0.0,0.0,98,0.00,,,0.00,VWS V14.01,2013-04-30 04:21:00,
2013-04-30 00:26:00,60.8,60.2,29.99,ESE,105,0.0,0.0,98,0.00,,,0.00,VWS V14.01,2013-04-30 04:26:00,
2013-04-30 00:31:00,60.7,60.1,29.99,ESE,105,0.0,0.0,98,0.00,,,0.00,VWS V14.01,2013-04-30 04:31:00,
2013-04-30 00:36:00,60.6,60.0,29.99,ESE,105,0.0,0.0,98,0.00,,,0.00,VWS V14.01,2013-04-30 04:36:00,
2013-04-30 00:41:00,60.5,59.9,29.99,ESE,105,0.0,0.0,98,0.00,,,0.00,VWS V14.01,2013-04-30 04:41:00,
2013-04-30 00:46:00,60.3,59.7,29.99,ESE,105,0.0,0.0,98,0.00,,,0.00,VWS V14.01,2013-04-30 04:46:00,
2013-04-30 00:51:00,60.2,59.6,29.99,ESE,105,0.0,0.0,98,0.00,,,0.00,VWS V14.01,2013-04-30 04:51:00,
2013-04-30 00:56:00,60.0,59.4,29.99,ESE,105,0.0,0.0,98,0.00,,,0.00,VWS V14.01,2013-04-30 04:56:00,
2013-04-30 01:01:00,59.9,59.3,29.99,ESE,105,0.0,0.0,98,0.00,,,0.00,VWS V14.01,2013-04-30 05:01:00,
2013-04-30 01:06:00,59.9,59.3,29.99,ESE,105,0.0,0.0,98,0.00,,,0.00,VWS V14.01,2013-04-30 05:06:00,
2013-04-30 01:11:00,59.8,59.2,29.99,ESE,105,0.0,1.0,98,0.00,,,0.00,VWS V14.01,2013-04-30 05:11:00,
2013-04-30 01:16:00,59.9,59.3,30.00,NW,325,0.0,1.0,98,0.00,,,0.00,VWS V14.01,2013-04-30 05:16:00,
2013-04-30 01:21:00,59.7,59.1,30.00,NW,325,0.0,1.0,98,0.00,,,0.00,VWS V14.01,2013-04-30 05:21:00,
2013-04-30 01:26:00,59.9,59.3,30.00,NW,324,0.0,1.0,98,0.00,,,0.00,VWS V14.01,2013-04-30 05:26:00,
2013-04-30 01:31:00,59.9,59.3,30.00,NW,323,0.0,1.0,98,0.00,,,0.00,VWS V14.01,2013-04-30 05:31:00,
2013-04-30 01:36:00,59.9,59.3,30.00,WSW,246,0.0,1.0,98,0.00,,,0.00,VWS V14.01,2013-04-30 05:36:00,
2013-04-30 01:41:00,60.0,59.4,30.00,WSW,241,0.0,1.0,98,0.00,,,0.00,VWS V14.01,2013-04-30 05:41:00,
2013-04-30 01:46:00,60.2,59.6,29.99,South,183,0.0,1.0,98,0.00,,,0.00,VWS V14.01,2013-04-30 05:46:00,
2013-04-30 01:51:00,60.2,59.6,29.99,South,183,0.0,1.0,98,0.00,,,0.00,VWS V14.01,2013-04-30 05:51:00,
2013-04-30 01:56:00,60.3,59.7,29.99,South,183,0.0,1.0,98,0.00,,,0.00,VWS V14.01,2013-04-30 05:56:00,
2013-04-30 02:01:00,60.5,59.9,29.99,South,184,0.0,1.0,98,0.00,,,0.00,VWS V14.01,2013-04-30 06:01:00,
2013-04-30 02:06:00,60.7,60.4,29.99,South,185,0.0,0.0,99,0.00,,,0.00,VWS V14.01,2013-04-30 06:06:00,
2013-04-30 02:11:00,60.7,60.1,29.99,South,185,0.0,0.0,98,0.00,,,0.00,VWS V14.01,2013-04-30 06:11:00,
2013-04-30 02:16:00,60.7,60.1,29.99,South,185,0.0,0.0,98,0.00,,,0.00,VWS V14.01,2013-04-30 06:16:00,
2013-04-30 02:21:00,60.8,60.5,29.99,South,185,0.0,0.0,99,0.00,,,0.00,VWS V14.01,2013-04-30 06:21:00,
2013-04-30 02:26:00,60.9,60.6,29.99,South,184,0.0,0.0,99,0.00,,,0.00,VWS V14.01,2013-04-30 06:26:00,
2013-04-30 02:31:00,61.1,60.8,29.99,South,190,0.0,1.0,99,0.00,,,0.00,VWS V14.01,2013-04-30 06:31:00,
2013-04-30 02:36:00,61.2,60.9,29.99,South,190,0.0,0.0,99,0.00,,,0.00,VWS V14.01,2013-04-30 06:36:00,
2013-04-30 02:41:00,61.2,60.9,29.99,South,190,0.0,0.0,99,0.00,,,0.00,VWS V14.01,2013-04-30 06:41:00,
2013-04-30 02:46:00,61.2,60.9,29.98,South,190,0.0,0.0,99,0.00,,,0.00,VWS V14.01,2013-04-30 06:46:00,
2013-04-30 02:51:00,61.3,60.7,29.98,South,190,0.0,0.0,98,0.00,,,0.00,VWS V14.01,2013-04-30 06:51:00,
2013-04-30 02:56:00,61.3,60.7,29.98,South,190,0.0,0.0,98,0.00,,,0.00,VWS V14.01,2013-04-30 06:56:00,
2013-04-30 03:01:00,61.3,60.7,29.98,South,191,0.0,1.0,98,0.00,,,0.00,VWS V14.01,2013-04-30 07:01:00,
2013-04-30 03:06:00,61.3,60.7,29.98,NW,315,0.0,2.0,98,0.00,,,0.00,VWS V14.01,2013-04-30 07:06:00,
2013-04-30 03:11:00,61.4,61.1,29.98,NW,315,0.0,2.0,99,0.00,,,0.00,VWS V14.01,2013-04-30 07:11:00,
2013-04-30 03:16:00,61.4,61.1,29.98,NW,315,0.0,2.0,99,0.00,,,0.00,VWS V14.01,2013-04-30 07:16:00,
2013-04-30 03:21:00,61.4,61.1,29.98,NW,315,0.0,2.0,99,0.00,,,0.00,VWS V14.01,2013-04-30 07:21:00,
2013-04-30 03:26:00,61.4,61.1,29.99,NW,315,0.0,2.0,99,0.00,,,0.00,VWS V14.01,2013-04-30 07:26:00,
2013-04-30 03:31:00,61.4,61.1,29.99,NW,315,0.0,2.0,99,0.00,,,0.00,VWS V14.01,2013-04-30 07:31:00,
2013-04-30 03:36:00,61.5,61.2,29.99,NW,315,0.0,0.0,99,0.00,,,0.00,VWS V14.01,2013-04-30 07:36:00,
2013-04-30 03:41:00,61.5,61.2,29.98,NW,315,0.0,0.0,99,0.00,,,0.00,VWS V14.01,2013-04-30 07:41:00,
2013-04-30 03:46:00,61.5,61.2,29.98,NW,315,0.0,0.0,99,0.00,,,0.00,VWS V14.01,2013-04-30 07:46:00,
2013-04-30 03:51:00,61.4,61.1,29.98,NW,315,0.0,0.0,99,0.00,,,0.00,VWS V14.01,2013-04-30 07:51:00,
2013-04-30 03:56:00,61.4,60.8,29.99,NW,313,0.0,1.0,98,0.00,,,0.00,VWS V14.01,2013-04-30 07:56:00,
2013-04-30 04:01:00,61.3,60.7,29.99,NW,313,0.0,1.0,98,0.00,,,0.00,VWS V14.01,2013-04-30 08:01:00,
2013-04-30 04:06:00,61.3,60.7,29.99,NW,313,0.0,0.0,98,0.00,,,0.00,VWS V14.01,2013-04-30 08:06:00,
2013-04-30 04:11:00,61.4,61.1,29.99,NW,313,0.0,0.0,99,0.00,,,0.00,VWS V14.01,2013-04-30 08:11:00,
2013-04-30 04:16:00,61.3,61.0,29.99,NW,313,0.0,0.0,99,0.00,,,0.00,VWS V14.01,2013-04-30 08:16:00,
2013-04-30 04:21:00,61.4,61.1,29.99,NW,312,0.0,0.0,99,0.00,,,0.00,VWS V14.01,2013-04-30 08:21:00,
2013-04-30 04:26:00,61.4,61.1,29.99,NW,313,0.0,0.0,99,0.00,,,0.00,VWS V14.01,2013-04-30 08:26:00,
2013-04-30 04:31:00,61.4,61.1,29.99,NW,313,0.0,0.0,99,0.00,,,0.00,VWS V14.01,2013-04-30 08:31:00,
2013-04-30 04:36:00,61.4,61.1,29.99,NNE,19,0.0,1.0,99,0.00,,,0.00,VWS V14.01,2013-04-30 08:36:00,
2013-04-30 04:41:00,61.4,61.1,30.00,NNE,19,0.0,1.0,99,0.00,,,0.00,VWS V14.01,2013-04-30 08:41:00,
2013-04-30 04:46:00,61.4,61.1,30.00,NNE,19,0.0,1.0,99,0.00,,,0.00,VWS V14.01,2013-04-30 08:46:00,
2013-04-30 04:51:00,61.5,61.2,30.00,NNE,19,0.0,1.0,99,0.00,,,0.00,VWS V14.01,2013-04-30 08:51:00,
2013-04-30 04:56:00,61.5,61.2,30.00,NNE,20,0.0,1.0,99,0.00,,,0.00,VWS V14.01,2013-04-30 08:56:00,
2013-04-30 05:01:00,61.5,61.2,30.00,NNE,19,0.0,1.0,99,0.00,,,0.00,VWS V14.01,2013-04-30 09:01:00,
2013-04-30 05:06:00,61.5,61.2,30.00,NNE,19,0.0,0.0,99,0.00,,,0.00,VWS V14.01,2013-04-30 09:06:00,
2013-04-30 05:11:00,61.5,61.2,30.01,NNE,18,0.0,0.0,99,0.00,,,0.00,VWS V14.01,2013-04-30 09:11:00,
2013-04-30 05:16:00,61.6,61.3,30.01,NNE,19,0.0,0.0,99,0.00,,,0.00,VWS V14.01,2013-04-30 09:16:00,
2013-04-30 05:21:00,61.5,61.2,30.01,NNE,19,1.0,1.0,99,0.00,,,0.00,VWS V14.01,2013-04-30 09:21:00,
2013-04-30 05:26:00,61.5,61.2,30.01,ENE,63,1.0,3.0,99,0.00,,,0.00,VWS V14.01,2013-04-30 09:26:00,
2013-04-30 05:30:00,61.4,61.1,30.01,East,85,0.0,3.0,99,0.00,,,0.00,VWS V14.01,2013-04-30 09:30:00,
2013-04-30 05:35:00,61.4,61.1,30.01,East,100,1.0,2.0,99,0.00,,,0.00,VWS V14.01,2013-04-30 09:35:00,
2013-04-30 05:40:00,61.4,61.1,30.01,ENE,67,2.0,3.0,99,0.00,,,0.00,VWS V14.01,2013-04-30 09:40:00,
2013-04-30 05:45:00,61.4,61.1,30.01,ENE,68,0.0,4.0,99,0.00,,,0.00,VWS V14.01,2013-04-30 09:45:00,
2013-04-30 05:50:00,61.4,61.1,30.02,ENE,68,0.0,4.0,99,0.00,,,0.00,VWS V14.01,2013-04-30 09:50:00,
2013-04-30 05:55:00,61.4,61.1,30.02,ENE,76,0.0,4.0,99,0.00,,,0.00,VWS V14.01,2013-04-30 09:55:00,
2013-04-30 06:00:00,61.4,61.1,30.02,ENE,77,0.0,4.0,99,0.00,,,0.00,VWS V14.01,2013-04-30 10:00:00,
2013-04-30 06:05:00,61.4,61.1,30.02,ENE,77,0.0,0.0,99,0.00,,,0.00,VWS V14.01,2013-04-30 10:05:00,
2013-04-30 06:10:00,61.5,61.2,30.02,ENE,77,0.0,0.0,99,0.00,,,0.00,VWS V14.01,2013-04-30 10:10:00,
2013-04-30 06:15:00,61.5,61.2,30.02,ENE,77,0.0,1.0,99,0.00,,,0.00,VWS V14.01,2013-04-30 10:15:00,
2013-04-30 06:20:00,61.5,61.2,30.02,ENE,77,0.0,1.0,99,0.00,,,0.00,VWS V14.01,2013-04-30 10:20:00,
2013-04-30 06:25:00,61.5,61.2,30.03,ENE,74,0.0,2.0,99,0.00,,,0.00,VWS V14.01,2013-04-30 10:25:00,
2013-04-30 06:30:00,61.5,61.2,30.03,NE,54,2.0,3.0,99,0.00,,,0.00,VWS V14.01,2013-04-30 10:30:00,
2013-04-30 06:35:00,61.4,60.8,30.03,ENE,66,2.0,3.0,98,0.00,,,0.00,VWS V14.01,2013-04-30 10:35:00,
2013-04-30 06:40:00,61.4,60.8,30.03,ENE,67,3.0,3.0,98,0.00,,,0.00,VWS V14.01,2013-04-30 10:40:00,
2013-04-30 06:45:00,61.4,61.1,30.04,ENE,68,0.0,5.0,99,0.00,,,0.00,VWS V14.01,2013-04-30 10:45:00,
2013-04-30 06:50:00,61.4,61.1,30.04,ENE,67,1.0,5.0,99,0.00,,,0.00,VWS V14.01,2013-04-30 10:50:00,
2013-04-30 06:55:00,61.4,61.1,30.04,ENE,63,1.0,5.0,99,0.00,,,0.00,VWS V14.01,2013-04-30 10:55:00,
2013-04-30 07:00:00,61.4,61.1,30.04,ENE,78,4.0,5.0,99,0.00,,,0.00,VWS V14.01,2013-04-30 11:00:00,
2013-04-30 07:05:00,61.3,61.0,30.04,ENE,65,0.0,1.0,99,0.00,,,0.00,VWS V14.01,2013-04-30 11:05:00,
2013-04-30 07:10:00,61.3,61.0,30.05,NNW,334,1.0,2.0,99,0.00,,,0.00,VWS V14.01,2013-04-30 11:10:00,
2013-04-30 07:15:00,61.2,60.9,30.05,NE,46,1.0,4.0,99,0.00,,,0.00,VWS V14.01,2013-04-30 11:15:00,
2013-04-30 07:20:00,61.2,60.9,30.05,ENE,63,2.0,4.0,99,0.00,,,0.00,VWS V14.01,2013-04-30 11:20:00,
2013-04-30 07:25:00,61.1,60.8,30.05,NE,45,2.0,7.0,99,0.00,,,0.00,VWS V14.01,2013-04-30 11:25:00,
2013-04-30 07:30:00,61.1,60.8,30.05,East,88,1.0,7.0,99,0.00,,,0.00,VWS V14.01,2013-04-30 11:30:00,
2013-04-30 07:35:00,61.0,60.7,30.06,West,264,1.0,1.0,99,0.00,,,0.00,VWS V14.01,2013-04-30 11:35:00,
2013-04-30 07:40:00,61.1,60.8,30.06,ENE,60,2.0,3.0,99,0.00,,,0.00,VWS V14.01,2013-04-30 11:40:00,
2013-04-30 07:45:00,61.1,60.8,30.06,ENE,69,1.0,3.0,99,0.00,,,0.00,VWS V14.01,2013-04-30 11:45:00,
2013-04-30 07:50:00,61.1,60.8,30.06,ENE,78,1.0,5.0,99,0.00,,,0.00,VWS V14.01,2013-04-30 11:50:00,
2013-04-30 07:55:00,61.1,60.8,30.06,East,82,0.0,5.0,99,0.00,,,0.00,VWS V14.01,2013-04-30 11:55:00,
2013-04-30 08:00:00,61.1,60.8,30.06,ENE,58,2.0,7.0,99,0.00,,,0.00,VWS V14.01,2013-04-30 12:00:00,
2013-04-30 08:05:00,61.1,60.8,30.07,NNE,27,0.0,7.0,99,0.00,,,0.00,VWS V14.01,2013-04-30 12:05:00,
2013-04-30 08:10:00,61.2,60.9,30.07,East,83,2.0,7.0,99,0.00,,,0.00,VWS V14.01,2013-04-30 12:10:00,
2013-04-30 08:15:00,61.3,61.0,30.07,ENE,66,1.0,8.0,99,0.00,,,0.00,VWS V14.01,2013-04-30 12:15:00,
2013-04-30 08:20:00,61.4,61.1,30.07,ENE,63,2.0,8.0,99,0.00,,,0.00,VWS V14.01,2013-04-30 12:20:00,
2013-04-30 08:25:00,61.5,61.2,30.07,NNE,17,0.0,8.0,99,0.00,,,0.00,VWS V14.01,2013-04-30 12:25:00,
2013-04-30 08:30:00,61.5,61.2,30.07,NE,48,0.0,8.0,99,0.00,,,0.00,VWS V14.01,2013-04-30 12:30:00,
2013-04-30 08:35:00,61.6,61.3,30.07,ENE,71,2.0,3.0,99,0.00,,,0.00,VWS V14.01,2013-04-30 12:35:00,
2013-04-30 08:40:00,61.7,61.1,30.07,ENE,68,3.0,4.0,98,0.00,,,0.00,VWS V14.01,2013-04-30 12:40:00,
2013-04-30 08:45:00,61.7,61.1,30.07,ENE,78,7.0,7.0,98,0.00,,,0.00,VWS V14.01,2013-04-30 12:45:00,
2013-04-30 08:50:00,61.9,61.3,30.07,ENE,69,3.0,7.0,98,0.00,,,0.00,VWS V14.01,2013-04-30 12:50:00,
2013-04-30 08:55:00,62.0,61.1,30.07,North,11,2.0,7.0,97,0.00,,,0.00,VWS V14.01,2013-04-30 12:55:00,
2013-04-30 09:00:00,62.2,61.3,30.08,East,82,6.0,7.0,97,0.00,,,0.00,VWS V14.01,2013-04-30 13:00:00,
2013-04-30 09:05:00,62.2,61.3,30.08,ENE,66,1.0,8.0,97,0.00,,,0.00,VWS V14.01,2013-04-30 13:05:00,
2013-04-30 09:10:00,62.3,61.4,30.08,NE,51,3.0,8.0,97,0.00,,,0.00,VWS V14.01,2013-04-30 13:10:00,
2013-04-30 09:15:00,62.2,61.0,30.08,ENE,63,5.0,8.0,96,0.00,,,0.00,VWS V14.01,2013-04-30 13:15:00,
2013-04-30 09:20:00,62.0,60.8,30.08,East,88,2.0,11.0,96,0.00,,,0.00,VWS V14.01,2013-04-30 13:20:00,
2013-04-30 09:25:00,61.8,60.7,30.08,ENE,76,2.0,11.0,96,0.00,,,0.00,VWS V14.01,2013-04-30 13:25:00,
2013-04-30 09:30:00,61.6,60.5,30.08,ENE,78,2.0,11.0,96,0.00,,,0.00,VWS V14.01,2013-04-30 13:30:00,
2013-04-30 09:35:00,61.5,60.3,30.08,ENE,57,0.0,3.0,96,0.00,,,0.00,VWS V14.01,2013-04-30 13:35:00,
2013-04-30 09:40:00,61.5,60.3,30.08,NE,48,5.0,5.0,96,0.00,,,0.00,VWS V14.01,2013-04-30 13:40:00,
2013-04-30 09:45:00,61.6,60.5,30.08,NW,315,1.0,5.0,96,0.00,,,0.00,VWS V14.01,2013-04-30 13:45:00,
2013-04-30 09:50:00,61.7,60.5,30.08,NNW,339,3.0,5.0,96,0.00,,,0.00,VWS V14.01,2013-04-30 13:50:00,
2013-04-30 09:55:00,61.6,60.5,30.09,ENE,77,3.0,8.0,96,0.00,,,0.00,VWS V14.01,2013-04-30 13:55:00,
2013-04-30 10:00:00,61.6,60.5,30.09,NE,44,2.0,8.0,96,0.00,,,0.00,VWS V14.01,2013-04-30 14:00:00,
2013-04-30 10:05:00,61.7,60.5,30.09,NNE,33,2.0,4.0,96,0.00,,,0.00,VWS V14.01,2013-04-30 14:05:00,
2013-04-30 10:10:00,61.7,60.3,30.09,ENE,67,5.0,5.0,95,0.00,,,0.00,VWS V14.01,2013-04-30 14:10:00,
2013-04-30 10:15:00,61.7,60.3,30.09,NE,48,2.0,5.0,95,0.00,,,0.00,VWS V14.01,2013-04-30 14:15:00,
2013-04-30 10:20:00,61.6,59.9,30.09,NE,46,2.0,7.0,94,0.00,,,0.00,VWS V14.01,2013-04-30 14:20:00,
2013-04-30 10:25:00,61.7,60.0,30.09,NNE,25,2.0,7.0,94,0.00,,,0.00,VWS V14.01,2013-04-30 14:25:00,
2013-04-30 10:30:00,61.7,60.0,30.09,NE,53,2.0,7.0,94,0.00,,,0.00,VWS V14.01,2013-04-30 14:30:00,
2013-04-30 10:35:00,61.6,59.9,30.09,ENE,67,3.0,7.0,94,0.00,,,0.00,VWS V14.01,2013-04-30 14:35:00,
2013-04-30 10:40:00,61.5,59.8,30.10,East,91,1.0,7.0,94,0.00,,,0.00,VWS V14.01,2013-04-30 14:40:00,
2013-04-30 10:45:00,61.6,59.6,30.10,East,80,3.0,8.0,93,0.00,,,0.00,VWS V14.01,2013-04-30 14:45:00,
2013-04-30 10:50:00,61.8,59.8,30.10,ENE,62,4.0,8.0,93,0.00,,,0.00,VWS V14.01,2013-04-30 14:50:00,
2013-04-30 10:55:00,61.8,59.8,30.10,NE,53,6.0,8.0,93,0.00,,,0.00,VWS V14.01,2013-04-30 14:55:00,
2013-04-30 11:00:00,61.7,59.7,30.10,NNE,26,1.0,8.0,93,0.00,,,0.00,VWS V14.01,2013-04-30 15:00:00,
2013-04-30 11:05:00,61.9,59.9,30.10,WNW,303,1.0,3.0,93,0.00,,,0.00,VWS V14.01,2013-04-30 15:05:00,
2013-04-30 11:10:00,61.9,59.5,30.10,NE,54,4.0,10.0,92,0.00,,,0.00,VWS V14.01,2013-04-30 15:10:00,
2013-04-30 11:15:00,61.9,59.9,30.10,NNW,334,1.0,10.0,93,0.00,,,0.00,VWS V14.01,2013-04-30 15:15:00,
2013-04-30 11:20:00,62.0,59.7,30.10,NNE,32,2.0,10.0,92,0.00,,,0.00,VWS V14.01,2013-04-30 15:20:00,
2013-04-30 11:25:00,62.1,59.8,30.10,NE,35,2.0,10.0,92,0.00,,,0.00,VWS V14.01,2013-04-30 15:25:00,
2013-04-30 11:30:00,62.1,59.8,30.10,NE,48,4.0,10.0,92,0.00,,,0.00,VWS V14.01,2013-04-30 15:30:00,
2013-04-30 11:35:00,62.2,60.2,30.10,NNE,30,1.0,4.0,93,0.00,,,0.00,VWS V14.01,2013-04-30 15:35:00,
2013-04-30 11:40:00,62.3,60.0,30.10,NE,41,1.0,5.0,92,0.00,,,0.00,VWS V14.01,2013-04-30 15:40:00,
2013-04-30 11:45:00,62.3,60.0,30.10,ESE,110,2.0,5.0,92,0.00,,,0.00,VWS V14.01,2013-04-30 15:45:00,
2013-04-30 11:50:00,62.2,59.8,30.10,East,80,3.0,5.0,92,0.00,,,0.00,VWS V14.01,2013-04-30 15:50:00,
2013-04-30 11:55:00,62.1,59.8,30.10,ESE,111,1.0,9.0,92,0.00,,,0.00,VWS V14.01,2013-04-30 15:55:00,
2013-04-30 12:00:00,62.1,59.8,30.10,East,80,3.0,9.0,92,0.00,,,0.00,VWS V14.01,2013-04-30 16:00:00,
2013-04-30 12:05:00,62.1,60.1,30.10,NNW,329,2.0,4.0,93,0.00,,,0.00,VWS V14.01,2013-04-30 16:05:00,
2013-04-30 12:10:00,62.0,59.7,30.10,ENE,66,2.0,6.0,92,0.00,,,0.00,VWS V14.01,2013-04-30 16:10:00,
2013-04-30 12:15:00,62.0,60.0,30.10,NNW,329,3.0,7.0,93,0.00,,,0.00,VWS V14.01,2013-04-30 16:15:00,
2013-04-30 12:20:00,61.8,59.8,30.10,NNW,329,1.0,7.0,93,0.00,,,0.00,VWS V14.01,2013-04-30 16:20:00,
2013-04-30 12:25:00,61.6,59.6,30.10,NNE,19,1.0,7.0,93,0.00,,,0.00,VWS V14.01,2013-04-30 16:25:00,
2013-04-30 12:30:00,61.6,59.6,30.10,ENE,63,2.0,8.0,93,0.00,,,0.00,VWS V14.01,2013-04-30 16:30:00,
2013-04-30 12:35:00,61.5,59.5,30.10,ENE,61,1.0,7.0,93,0.00,,,0.00,VWS V14.01,2013-04-30 16:35:00,
2013-04-30 12:40:00,61.7,59.7,30.10,NNE,16,2.0,7.0,93,0.00,,,0.00,VWS V14.01,2013-04-30 16:40:00,
2013-04-30 12:45:00,61.8,59.8,30.09,East,98,5.0,8.0,93,0.00,,,0.00,VWS V14.01,2013-04-30 16:45:00,
2013-04-30 12:50:00,61.8,59.8,30.09,East,79,1.0,8.0,93,0.00,,,0.00,VWS V14.01,2013-04-30 16:50:00,
2013-04-30 12:55:00,61.8,59.8,30.09,ENE,63,0.0,9.0,93,0.00,,,0.00,VWS V14.01,2013-04-30 16:55:00,
2013-04-30 13:00:00,61.8,59.8,30.09,NE,40,0.0,9.0,93,0.00,,,0.00,VWS V14.01,2013-04-30 17:00:00,
2013-04-30 13:05:00,61.8,59.8,30.09,ENE,68,4.0,6.0,93,0.00,,,0.00,VWS V14.01,2013-04-30 17:05:00,
2013-04-30 13:10:00,61.8,59.8,30.09,ENE,59,2.0,6.0,93,0.00,,,0.00,VWS V14.01,2013-04-30 17:10:00,
2013-04-30 13:15:00,62.0,60.0,30.09,NE,46,1.0,6.0,93,0.00,,,0.00,VWS V14.01,2013-04-30 17:15:00,
2013-04-30 13:20:00,62.2,59.8,30.09,NNE,26,1.0,6.0,92,0.00,,,0.00,VWS V14.01,2013-04-30 17:20:00,
2013-04-30 13:25:00,62.5,59.8,30.09,ESE,104,4.0,7.0,91,0.00,,,0.00,VWS V14.01,2013-04-30 17:25:00,
2013-04-30 13:30:00,62.5,59.8,30.09,East,79,5.0,9.0,91,0.00,,,0.00,VWS V14.01,2013-04-30 17:30:00,
2013-04-30 13:35:00,62.4,59.7,30.09,East,96,5.0,7.0,91,0.00,,,0.00,VWS V14.01,2013-04-30 17:35:00,
2013-04-30 13:40:00,62.2,59.5,30.09,ENE,60,4.0,8.0,91,0.00,,,0.00,VWS V14.01,2013-04-30 17:40:00,
2013-04-30 13:45:00,62.5,59.8,30.09,East,85,2.0,8.0,91,0.00,,,0.00,VWS V14.01,2013-04-30 17:45:00,
2013-04-30 13:50:00,63.2,60.2,30.09,NNW,328,1.0,8.0,90,0.00,,,0.00,VWS V14.01,2013-04-30 17:50:00,
2013-04-30 13:55:00,63.3,59.7,30.09,ENE,78,7.0,11.0,88,0.00,,,0.00,VWS V14.01,2013-04-30 17:55:00,
2013-04-30 14:00:00,63.3,60.0,30.09,NNE,24,1.0,11.0,89,0.00,,,0.00,VWS V14.01,2013-04-30 18:00:00,
2013-04-30 14:05:00,63.8,60.2,30.09,NNW,344,2.0,2.0,88,0.00,,,0.00,VWS V14.01,2013-04-30 18:05:00,
2013-04-30 14:10:00,63.9,60.0,30.09,ENE,57,1.0,8.0,87,0.00,,,0.00,VWS V14.01,2013-04-30 18:10:00,
2013-04-30 14:15:00,63.8,60.2,30.08,NNW,346,1.0,8.0,88,0.00,,,0.00,VWS V14.01,2013-04-30 18:15:00,
2013-04-30 14:20:00,63.8,59.5,30.09,ENE,69,4.0,9.0,86,0.00,,,0.00,VWS V14.01,2013-04-30 18:20:00,
2013-04-30 14:25:00,63.9,59.6,30.09,ENE,57,1.0,9.0,86,0.00,,,0.00,VWS V14.01,2013-04-30 18:25:00,
2013-04-30 14:30:00,63.9,60.0,30.09,NNE,28,0.0,9.0,87,0.00,,,0.00,VWS V14.01,2013-04-30 18:30:00,
2013-04-30 14:35:00,64.2,59.9,30.09,NNE,15,2.0,6.0,86,0.00,,,0.00,VWS V14.01,2013-04-30 18:35:00,
2013-04-30 14:40:00,64.2,60.3,30.09,NNE,28,1.0,6.0,87,0.00,,,0.00,VWS V14.01,2013-04-30 18:40:00,
2013-04-30 14:45:00,64.3,60.3,30.09,NNW,331,1.0,6.0,87,0.00,,,0.00,VWS V14.01,2013-04-30 18:45:00,
2013-04-30 14:50:00,64.6,60.3,30.09,WNW,290,2.0,6.0,86,0.00,,,0.00,VWS V14.01,2013-04-30 18:50:00,
2013-04-30 14:55:00,64.6,60.7,30.09,NE,36,0.0,6.0,87,0.00,,,0.00,VWS V14.01,2013-04-30 18:55:00,
2013-04-30 15:00:00,64.5,60.2,30.09,ENE,71,4.0,7.0,86,0.00,,,0.00,VWS V14.01,2013-04-30 19:00:00,
2013-04-30 15:05:00,64.1,59.8,30.09,ENE,74,1.0,4.0,86,0.00,,,0.00,VWS V14.01,2013-04-30 19:05:00,
2013-04-30 15:10:00,64.0,59.7,30.09,East,85,6.0,7.0,86,0.00,,,0.00,VWS V14.01,2013-04-30 19:10:00,
2013-04-30 15:15:00,64.1,59.8,30.08,NE,53,3.0,7.0,86,0.00,,,0.00,VWS V14.01,2013-04-30 19:15:00,
2013-04-30 15:20:00,64.2,59.6,30.09,East,85,3.0,7.0,85,0.00,,,0.00,VWS V14.01,2013-04-30 19:20:00,
2013-04-30 15:25:00,64.5,59.9,30.09,North,349,0.0,7.0,85,0.00,,,0.00,VWS V14.01,2013-04-30 19:25:00,
2013-04-30 15:30:00,64.9,60.6,30.08,ESE,119,1.0,7.0,86,0.00,,,0.00,VWS V14.01,2013-04-30 19:30:00,
2013-04-30 15:35:00,65.1,60.5,30.08,NW,325,0.0,2.0,85,0.00,,,0.00,VWS V14.01,2013-04-30 19:35:00,
2013-04-30 15:40:00,65.1,59.8,30.08,ENE,60,4.0,9.0,83,0.00,,,0.00,VWS V14.01,2013-04-30 19:40:00,
2013-04-30 15:45:00,64.7,59.8,30.09,NNE,31,1.0,9.0,84,0.00,,,0.00,VWS V14.01,2013-04-30 19:45:00,
2013-04-30 15:50:00,64.5,59.6,30.08,NE,35,1.0,9.0,84,0.00,,,0.00,VWS V14.01,2013-04-30 19:50:00,
2013-04-30 15:55:00,64.3,59.7,30.09,NNE,17,0.0,9.0,85,0.00,,,0.00,VWS V14.01,2013-04-30 19:55:00,
2013-04-30 16:00:00,64.0,59.4,30.08,ENE,71,3.0,9.0,85,0.00,,,0.00,VWS V14.01,2013-04-30 20:00:00,
2013-04-30 16:05:00,63.9,59.6,30.08,NNW,348,0.0,2.0,86,0.00,,,0.00,VWS V14.01,2013-04-30 20:05:00,
2013-04-30 16:10:00,64.1,59.8,30.08,NE,52,3.0,7.0,86,0.00,,,0.00,VWS V14.01,2013-04-30 20:10:00,
2013-04-30 16:15:00,64.3,59.7,30.08,ENE,77,2.0,7.0,85,0.00,,,0.00,VWS V14.01,2013-04-30 20:15:00,
2013-04-30 16:20:00,64.5,59.6,30.08,East,80,1.0,7.0,84,0.00,,,0.00,VWS V14.01,2013-04-30 20:20:00,
2013-04-30 16:25:00,64.8,59.5,30.08,East,99,3.0,7.0,83,0.00,,,0.00,VWS V14.01,2013-04-30 20:25:00,
2013-04-30 16:30:00,64.9,59.3,30.08,SSE,153,1.0,7.0,82,0.00,,,0.00,VWS V14.01,2013-04-30 20:30:00,
2013-04-30 16:35:00,65.2,59.6,30.08,ENE,75,3.0,6.0,82,0.00,,,0.00,VWS V14.01,2013-04-30 20:35:00,
2013-04-30 16:40:00,65.2,59.6,30.08,ENE,74,3.0,6.0,82,0.00,,,0.00,VWS V14.01,2013-04-30 20:40:00,
2013-04-30 16:45:00,65.3,59.7,30.08,NE,47,4.0,6.0,82,0.00,,,0.00,VWS V14.01,2013-04-30 20:45:00,
2013-04-30 16:50:00,65.4,59.8,30.08,ENE,71,3.0,7.0,82,0.00,,,0.00,VWS V14.01,2013-04-30 20:50:00,
2013-04-30 16:55:00,65.5,59.5,30.08,NW,309,3.0,9.0,81,0.00,,,0.00,VWS V14.01,2013-04-30 20:55:00,
2013-04-30 17:00:00,65.7,59.7,30.08,ENE,66,4.0,9.0,81,0.00,,,0.00,VWS V14.01,2013-04-30 21:00:00,
2013-04-30 17:05:00,65.6,59.6,30.09,East,79,5.0,8.0,81,0.00,,,0.00,VWS V14.01,2013-04-30 21:05:00,
2013-04-30 17:10:00,65.3,59.3,30.09,East,82,7.0,10.0,81,0.00,,,0.00,VWS V14.01,2013-04-30 21:10:00,
2013-04-30 17:15:00,65.0,59.4,30.09,ENE,66,1.0,10.0,82,0.00,,,0.00,VWS V14.01,2013-04-30 21:15:00,
2013-04-30 17:20:00,64.9,59.3,30.09,NNE,32,1.0,10.0,82,0.00,,,0.00,VWS V14.01,2013-04-30 21:20:00,
2013-04-30 17:25:00,65.0,59.7,30.09,NNW,340,1.0,10.0,83,0.00,,,0.00,VWS V14.01,2013-04-30 21:25:00,
2013-04-30 17:30:00,65.1,60.2,30.10,ENE,71,3.0,10.0,84,0.00,,,0.00,VWS V14.01,2013-04-30 21:30:00,
2013-04-30 17:35:00,65.1,59.8,30.09,NNW,341,2.0,4.0,83,0.00,,,0.00,VWS V14.01,2013-04-30 21:35:00,
2013-04-30 17:40:00,65.3,60.0,30.09,NE,34,1.0,4.0,83,0.00,,,0.00,VWS V14.01,2013-04-30 21:40:00,
2013-04-30 17:45:00,65.4,59.8,30.09,NNW,333,2.0,5.0,82,0.00,,,0.00,VWS V14.01,2013-04-30 21:45:00,
2013-04-30 17:50:00,65.4,59.8,30.10,North,349,2.0,5.0,82,0.00,,,0.00,VWS V14.01,2013-04-30 21:50:00,
2013-04-30 17:55:00,65.3,59.7,30.10,North,10,2.0,6.0,82,0.00,,,0.00,VWS V14.01,2013-04-30 21:55:00,
2013-04-30 18:00:00,65.3,59.3,30.10,NNE,27,1.0,8.0,81,0.00,,,0.00,VWS V14.01,2013-04-30 22:00:00,
2013-04-30 18:05:00,65.2,59.2,30.10,NE,35,3.0,5.0,81,0.00,,,0.00,VWS V14.01,2013-04-30 22:05:00,
2013-04-30 18:10:00,65.2,59.2,30.10,West,279,1.0,5.0,81,0.00,,,0.00,VWS V14.01,2013-04-30 22:10:00,
2013-04-30 18:15:00,65.2,59.2,30.10,NNW,329,2.0,6.0,81,0.00,,,0.00,VWS V14.01,2013-04-30 22:15:00,
2013-04-30 18:20:00,65.2,59.2,30.10,NE,46,0.0,6.0,81,0.00,,,0.00,VWS V14.01,2013-04-30 22:20:00,
2013-04-30 18:25:00,65.1,59.1,30.10,NE,37,0.0,7.0,81,0.00,,,0.00,VWS V14.01,2013-04-30 22:25:00,
2013-04-30 18:30:00,65.0,59.0,30.10,ENE,64,4.0,7.0,81,0.00,,,0.00,VWS V14.01,2013-04-30 22:30:00,
2013-04-30 18:35:00,65.0,59.4,30.10,NE,51,0.0,4.0,82,0.00,,,0.00,VWS V14.01,2013-04-30 22:35:00,
2013-04-30 18:40:00,65.1,59.5,30.11,NNW,343,0.0,4.0,82,0.00,,,0.00,VWS V14.01,2013-04-30 22:40:00,
2013-04-30 18:45:00,65.1,58.8,30.11,NW,306,2.0,7.0,80,0.00,,,0.00,VWS V14.01,2013-04-30 22:45:00,
2013-04-30 18:50:00,65.1,58.4,30.11,NNE,15,2.0,7.0,79,0.00,,,0.00,VWS V14.01,2013-04-30 22:50:00,
2013-04-30 18:55:00,65.0,58.7,30.11,ENE,67,2.0,7.0,80,0.00,,,0.00,VWS V14.01,2013-04-30 22:55:00,
2013-04-30 19:00:00,64.9,58.6,30.11,NNE,22,2.0,7.0,80,0.00,,,0.00,VWS V14.01,2013-04-30 23:00:00,
2013-04-30 19:05:00,64.9,58.6,30.11,North,11,1.0,1.0,80,0.00,,,0.00,VWS V14.01,2013-04-30 23:05:00,
2013-04-30 19:10:00,64.9,58.6,30.12,NE,46,1.0,2.0,80,0.00,,,0.00,VWS V14.01,2013-04-30 23:10:00,
2013-04-30 19:15:00,64.7,58.4,30.12,ENE,76,2.0,7.0,80,0.00,,,0.00,VWS V14.01,2013-04-30 23:15:00,
2013-04-30 19:20:00,64.6,58.7,30.12,NNE,30,0.0,7.0,81,0.00,,,0.00,VWS V14.01,2013-04-30 23:20:00,
2013-04-30 19:25:00,64.5,58.5,30.12,NNE,30,1.0,7.0,81,0.00,,,0.00,VWS V14.01,2013-04-30 23:25:00,
2013-04-30 19:30:00,64.4,58.8,30.12,NNW,344,2.0,7.0,82,0.00,,,0.00,VWS V14.01,2013-04-30 23:30:00,
2013-04-30 19:35:00,64.3,58.7,30.12,North,350,1.0,2.0,82,0.00,,,0.00,VWS V14.01,2013-04-30 23:35:00,
2013-04-30 19:40:00,64.1,58.5,30.12,NNW,338,1.0,3.0,82,0.00,,,0.00,VWS V14.01,2013-04-30 23:40:00,
2013-04-30 19:45:00,63.9,58.3,30.12,North,5,2.0,3.0,82,0.00,,,0.00,VWS V14.01,2013-04-30 23:45:00,
2013-04-30 19:50:00,63.7,58.5,30.12,NW,325,1.0,3.0,83,0.00,,,0.00,VWS V14.01,2013-04-30 23:50:00,
2013-04-30 19:55:00,63.5,58.2,30.12,NNW,341,1.0,3.0,83,0.00,,,0.00,VWS V14.01,2013-04-30 23:55:00,
2013-04-30 20:00:00,63.3,58.1,30.12,NNE,15,0.0,3.0,83,0.00,,,0.00,VWS V14.01,2013-05-01 00:00:00,
2013-04-30 20:05:00,63.1,58.2,30.13,NNW,331,2.0,2.0,84,0.00,,,0.00,VWS V14.01,2013-05-01 00:05:00,
2013-04-30 20:10:00,63.0,58.1,30.13,NE,38,2.0,3.0,84,0.00,,,0.00,VWS V14.01,2013-05-01 00:10:00,
2013-04-30 20:15:00,62.9,58.0,30.13,NNE,28,1.0,4.0,84,0.00,,,0.00,VWS V14.01,2013-05-01 00:15:00,
2013-04-30 20:20:00,62.7,57.8,30.13,NNW,337,0.0,4.0,84,0.00,,,0.00,VWS V14.01,2013-05-01 00:20:00,
2013-04-30 20:25:00,62.6,58.0,30.13,NNE,24,1.0,4.0,85,0.00,,,0.00,VWS V14.01,2013-05-01 00:25:00,
2013-04-30 20:30:00,62.5,57.9,30.13,NNW,336,2.0,4.0,85,0.00,,,0.00,VWS V14.01,2013-05-01 00:30:00,
2013-04-30 20:35:00,62.4,57.8,30.14,North,5,0.0,1.0,85,0.00,,,0.00,VWS V14.01,2013-05-01 00:35:00,
2013-04-30 20:40:00,62.2,57.6,30.14,North,355,1.0,2.0,85,0.00,,,0.00,VWS V14.01,2013-05-01 00:40:00,
2013-04-30 20:45:00,61.9,57.7,30.14,North,5,0.0,2.0,86,0.00,,,0.00,VWS V14.01,2013-05-01 00:45:00,
2013-04-30 20:50:00,61.7,57.5,30.14,North,355,1.0,2.0,86,0.00,,,0.00,VWS V14.01,2013-05-01 00:50:00,
2013-04-30 20:55:00,61.4,57.5,30.13,North,355,0.0,2.0,87,0.00,,,0.00,VWS V14.01,2013-05-01 00:55:00,
2013-04-30 21:00:00,61.2,57.3,30.13,NNW,348,1.0,2.0,87,0.00,,,0.00,VWS V14.01,2013-05-01 01:00:00,
2013-04-30 21:05:00,61.0,57.1,30.13,NNW,327,0.0,2.0,87,0.00,,,0.00,VWS V14.01,2013-05-01 01:05:00,
2013-04-30 21:10:00,60.9,57.0,30.14,NNW,327,0.0,2.0,87,0.00,,,0.00,VWS V14.01,2013-05-01 01:10:00,
2013-04-30 21:15:00,60.6,56.7,30.14,NNW,327,0.0,2.0,87,0.00,,,0.00,VWS V14.01,2013-05-01 01:15:00,
2013-04-30 21:20:00,60.5,56.9,30.14,NNW,328,0.0,2.0,88,0.00,,,0.00,VWS V14.01,2013-05-01 01:20:00,
2013-04-30 21:25:00,60.3,56.7,30.14,NNW,330,1.0,2.0,88,0.00,,,0.00,VWS V14.01,2013-05-01 01:25:00,
2013-04-30 21:30:00,60.1,56.8,30.14,NNW,331,0.0,2.0,89,0.00,,,0.00,VWS V14.01,2013-05-01 01:30:00,
2013-04-30 21:35:00,59.8,56.6,30.14,North,350,1.0,1.0,89,0.00,,,0.00,VWS V14.01,2013-05-01 01:35:00,
2013-04-30 21:40:00,59.6,56.4,30.14,NNW,331,1.0,1.0,89,0.00,,,0.00,VWS V14.01,2013-05-01 01:40:00,
2013-04-30 21:45:00,59.5,56.3,30.14,NNW,333,0.0,2.0,89,0.00,,,0.00,VWS V14.01,2013-05-01 01:45:00,
2013-04-30 21:50:00,59.4,56.2,30.14,NNW,346,1.0,2.0,89,0.00,,,0.00,VWS V14.01,2013-05-01 01:50:00,
2013-04-30 21:55:00,59.2,56.3,30.15,NNW,336,1.0,2.0,90,0.00,,,0.00,VWS V14.01,2013-05-01 01:55:00,
2013-04-30 22:00:00,59.0,56.1,30.15,NNW,336,0.0,2.0,90,0.00,,,0.00,VWS V14.01,2013-05-01 02:00:00,
2013-04-30 22:05:00,58.9,56.0,30.15,NNW,333,1.0,2.0,90,0.00,,,0.00,VWS V14.01,2013-05-01 02:05:00,
2013-04-30 22:10:00,58.8,55.9,30.15,NNE,14,1.0,2.0,90,0.00,,,0.00,VWS V14.01,2013-05-01 02:10:00,
2013-04-30 22:15:00,58.7,55.8,30.15,North,11,1.0,2.0,90,0.00,,,0.00,VWS V14.01,2013-05-01 02:15:00,
2013-04-30 22:20:00,58.7,55.8,30.15,North,355,0.0,2.0,90,0.00,,,0.00,VWS V14.01,2013-05-01 02:20:00,
2013-04-30 22:25:00,58.6,55.7,30.15,NW,313,1.0,2.0,90,0.00,,,0.00,VWS V14.01,2013-05-01 02:25:00,
2013-04-30 22:30:00,58.4,55.8,30.15,NNW,346,1.0,2.0,91,0.00,,,0.00,VWS V14.01,2013-05-01 02:30:00,
2013-04-30 22:35:00,58.4,55.8,30.15,North,5,1.0,2.0,91,0.00,,,0.00,VWS V14.01,2013-05-01 02:35:00,
2013-04-30 22:40:00,58.3,55.7,30.15,NNW,345,1.0,2.0,91,0.00,,,0.00,VWS V14.01,2013-05-01 02:40:00,
2013-04-30 22:45:00,58.2,55.6,30.15,NNW,346,1.0,2.0,91,0.00,,,0.00,VWS V14.01,2013-05-01 02:45:00,
2013-04-30 22:50:00,58.1,55.5,30.14,NNW,347,1.0,2.0,91,0.00,,,0.00,VWS V14.01,2013-05-01 02:50:00,
2013-04-30 22:55:00,58.0,55.4,30.15,NNW,338,1.0,2.0,91,0.00,,,0.00,VWS V14.01,2013-05-01 02:55:00,
2013-04-30 23:00:00,57.9,55.6,30.15,NNE,19,0.0,2.0,92,0.00,,,0.00,VWS V14.01,2013-05-01 03:00:00,
2013-04-30 23:05:00,58.0,55.7,30.15,NNE,13,1.0,2.0,92,0.00,,,0.00,VWS V14.01,2013-05-01 03:05:00,
2013-04-30 23:10:00,57.9,55.3,30.14,NNW,348,1.0,2.0,91,0.00,,,0.00,VWS V14.01,2013-05-01 03:10:00,
2013-04-30 23:15:00,57.8,55.5,30.14,NNW,342,1.0,2.0,92,0.00,,,0.00,VWS V14.01,2013-05-01 03:15:00,
2013-04-30 23:20:00,57.8,55.5,30.14,NNW,347,1.0,2.0,92,0.00,,,0.00,VWS V14.01,2013-05-01 03:20:00,
2013-04-30 23:25:00,57.7,55.4,30.14,NNW,347,2.0,2.0,92,0.00,,,0.00,VWS V14.01,2013-05-01 03:25:00,
2013-04-30 23:30:00,57.7,55.4,30.14,NW,313,0.0,2.0,92,0.00,,,0.00,VWS V14.01,2013-05-01 03:30:00,
2013-04-30 23:35:00,57.8,55.5,30.14,NNW,346,2.0,2.0,92,0.00,,,0.00,VWS V14.01,2013-05-01 03:35:00,
2013-04-30 23:40:00,57.8,55.5,30.15,NW,322,2.0,2.0,92,0.00,,,0.00,VWS V14.01,2013-05-01 03:40:00,
2013-04-30 23:45:00,57.8,55.5,30.15,NNW,342,1.0,2.0,92,0.00,,,0.00,VWS V14.01,2013-05-01 03:45:00,
2013-04-30 23:50:00,57.7,55.4,30.15,North,5,1.0,2.0,92,0.00,,,0.00,VWS V14.01,2013-05-01 03:50:00,
2013-04-30 23:55:00,57.6,55.3,30.15,North,360,0.0,2.0,92,0.00,,,0.00,VWS V14.01,2013-05-01 03:55:00,